createdAt,value
2023-01-09T00:00:35.218Z,93551.59
2023-01-09T00:03:39.391Z,93533.84
2023-01-09T00:06:44.007Z,93535.78
2023-01-09T00:09:47.361Z,93535.78
2023-01-09T00:12:51.670Z,93534.59
2023-01-09T00:15:54.863Z,93544.66
2023-01-09T00:19:16.486Z,93532.09
2023-01-09T00:22:19.503Z,93545.56
2023-01-09T00:25:23.372Z,93542.75
2023-01-09T00:28:26.302Z,93552.41
2023-01-09T00:31:47.927Z,93548.94
2023-01-09T00:34:51.625Z,93540.09
2023-01-09T00:37:54.851Z,93535.56
2023-01-09T00:41:00.072Z,93532.81
2023-01-09T00:44:14.338Z,93531.03
2023-01-09T00:47:39.010Z,93535.34
2023-01-09T00:50:43.262Z,93522.66
2023-01-09T00:54:05.960Z,93511.25
2023-01-09T00:57:12.133Z,93511.13
2023-01-09T01:00:15.810Z,93509.81
2023-01-09T01:03:18.699Z,93515.41
2023-01-09T01:06:40.378Z,93517.28
2023-01-09T01:09:44.134Z,93499.72
2023-01-09T01:12:49.522Z,93488.28
2023-01-09T01:15:53.596Z,93498.78
2023-01-09T01:18:57.418Z,93497.56
2023-01-09T01:22:00.541Z,93491.88
2023-01-09T01:25:05.978Z,93479.16
2023-01-09T01:28:09.576Z,93492.81
2023-01-09T01:31:31.461Z,93485.78
2023-01-09T01:34:36.705Z,93501.03
2023-01-09T01:37:40.039Z,93507.25
2023-01-09T01:40:43.781Z,93503.16
2023-01-09T01:43:55.684Z,93501.94
2023-01-09T01:46:58.804Z,93499.31
2023-01-09T01:50:05.554Z,93497.78
2023-01-09T01:53:35.238Z,93489.56
2023-01-09T01:57:01.737Z,93483.00
2023-01-09T02:00:06.211Z,93484.13
2023-01-09T02:03:09.370Z,93486.56
2023-01-09T02:06:14.572Z,93472.72
2023-01-09T02:09:21.069Z,93472.97
2023-01-09T02:12:28.759Z,93456.84
2023-01-09T02:15:48.498Z,93445.66
2023-01-09T02:19:51.543Z,93439.44
2023-01-09T02:23:05.820Z,93461.72
2023-01-09T02:27:00.258Z,93461.06
2023-01-09T02:30:31.363Z,93461.47
2023-01-09T02:33:57.758Z,93459.59
2023-01-09T02:37:34.959Z,93466.09
2023-01-09T02:41:02.523Z,93462.28
2023-01-09T02:44:27.450Z,93453.25
2023-01-09T02:47:30.522Z,93444.19
2023-01-09T02:50:56.266Z,93430.88
2023-01-09T02:54:11.096Z,93415.94
2023-01-09T02:57:49.519Z,93419.88
2023-01-09T03:01:17.004Z,93401.16
2023-01-09T03:05:01.291Z,93396.47
2023-01-09T03:08:19.318Z,93405.53
2023-01-09T03:11:23.013Z,93384.28
2023-01-09T03:14:27.192Z,93370.72
2023-01-09T03:17:39.611Z,93366.03
2023-01-09T03:20:45.418Z,93366.44
2023-01-09T03:23:56.805Z,93372.94
2023-01-09T03:27:00.230Z,93359.34
2023-01-09T03:30:03.214Z,93358.34
2023-01-09T03:33:07.231Z,93348.19
2023-01-09T03:36:12.280Z,93350.75
2023-01-09T03:39:16.135Z,93350.81
2023-01-09T03:42:38.555Z,93337.41
2023-01-09T03:45:43.845Z,93325.88
2023-01-09T03:48:47.524Z,93344.78
2023-01-09T03:51:50.869Z,93347.50
2023-01-09T03:54:54.562Z,93345.47
2023-01-09T03:57:57.918Z,93348.91
2023-01-09T04:01:05.254Z,93340.44
2023-01-09T04:04:08.354Z,93350.53
2023-01-09T04:07:11.701Z,93340.81
2023-01-09T04:10:14.669Z,93322.25
2023-01-09T04:13:18.798Z,93313.78
2023-01-09T04:16:21.983Z,93308.38
2023-01-09T04:19:26.399Z,93298.72
2023-01-09T04:22:29.893Z,93301.88
2023-01-09T04:25:33.926Z,93272.13
2023-01-09T04:28:37.735Z,93288.44
2023-01-09T04:31:40.830Z,93286.59
2023-01-09T04:34:44.558Z,93280.50
2023-01-09T04:37:48.079Z,93279.25
2023-01-09T04:40:51.801Z,93266.06
2023-01-09T04:44:14.245Z,93266.25
2023-01-09T04:47:17.249Z,93263.94
2023-01-09T04:50:21.418Z,93250.63
2023-01-09T04:53:25.194Z,93255.38
2023-01-09T04:56:46.753Z,93254.59
2023-01-09T04:59:50.077Z,93245.09
2023-01-09T05:02:54.129Z,93235.97
2023-01-09T05:05:57.473Z,93239.97
2023-01-09T05:09:01.067Z,93228.66
2023-01-09T05:12:04.143Z,93220.00
2023-01-09T05:15:09.106Z,93218.72
2023-01-09T05:18:12.888Z,93210.34
2023-01-09T05:21:15.884Z,93202.94
2023-01-09T05:24:18.901Z,93218.00
2023-01-09T05:27:21.985Z,93217.66
2023-01-09T05:30:25.164Z,93203.66
2023-01-09T05:33:28.875Z,93189.63
2023-01-09T05:36:32.293Z,93187.88
2023-01-09T05:39:35.607Z,93188.94
2023-01-09T05:42:39.422Z,93181.78
2023-01-09T05:45:42.520Z,93186.28
2023-01-09T05:48:45.737Z,93167.66
2023-01-09T05:51:49.698Z,93161.78
2023-01-09T05:54:53.374Z,93179.28
2023-01-09T05:57:57.372Z,93172.19
2023-01-09T06:01:00.545Z,93167.00
2023-01-09T06:04:04.710Z,93155.97
2023-01-09T06:07:07.740Z,93157.50
2023-01-09T06:10:16.196Z,93145.56
2023-01-09T06:13:19.259Z,93138.09
2023-01-09T06:16:22.299Z,93142.59
2023-01-09T06:19:25.760Z,93147.28
2023-01-09T06:22:28.788Z,93142.09
2023-01-09T06:25:31.870Z,93136.22
2023-01-09T06:28:34.850Z,93134.66
2023-01-09T06:31:37.938Z,93138.16
2023-01-09T06:34:40.925Z,93127.94
2023-01-09T06:37:45.132Z,93128.28
2023-01-09T06:40:49.569Z,93118.75
2023-01-09T06:43:52.767Z,93112.19
2023-01-09T06:47:13.830Z,93112.91
2023-01-09T06:50:17.259Z,93106.84
2023-01-09T06:53:20.781Z,93101.16
2023-01-09T06:56:42.301Z,93092.50
2023-01-09T06:59:45.389Z,93077.97
2023-01-09T07:02:48.451Z,93080.72
2023-01-09T07:05:51.700Z,93079.53
2023-01-09T07:08:54.824Z,93089.03
2023-01-09T07:11:58.288Z,93089.72
2023-01-09T07:15:01.935Z,93090.09
2023-01-09T07:18:05.726Z,93088.00
2023-01-09T07:21:28.255Z,93087.47
2023-01-09T07:24:32.206Z,93086.41
2023-01-09T07:27:36.000Z,93085.19
2023-01-09T07:30:57.508Z,93077.63
2023-01-09T07:34:00.537Z,93084.69
2023-01-09T07:37:03.890Z,93072.56
2023-01-09T07:40:07.496Z,93070.63
2023-01-09T07:43:10.936Z,93068.03
2023-01-09T07:46:14.808Z,93072.38
2023-01-09T07:49:18.437Z,93060.31
2023-01-09T07:52:22.089Z,93075.47
2023-01-09T07:55:25.618Z,93067.28
2023-01-09T07:58:28.742Z,93070.53
2023-01-09T08:01:32.411Z,93070.38
2023-01-09T08:04:35.560Z,93067.56
2023-01-09T08:07:39.076Z,93063.03
2023-01-09T08:10:42.488Z,93062.84
2023-01-09T08:13:46.178Z,93060.22
2023-01-09T08:16:49.131Z,93062.25
2023-01-09T08:19:52.137Z,93066.25
2023-01-09T08:22:56.247Z,93058.50
2023-01-09T08:25:59.215Z,93052.22
2023-01-09T08:29:02.282Z,93060.47
2023-01-09T08:32:06.255Z,93060.59
2023-01-09T08:35:10.750Z,93051.28
2023-01-09T08:38:33.532Z,93052.13
2023-01-09T08:41:54.846Z,93054.84
2023-01-09T08:45:16.392Z,93053.50
2023-01-09T08:48:20.339Z,93050.75
2023-01-09T08:51:24.028Z,93069.72
2023-01-09T08:54:28.093Z,93063.09
2023-01-09T08:57:31.950Z,93064.06
2023-01-09T09:00:35.747Z,93057.00
2023-01-09T09:03:39.978Z,93057.84
2023-01-09T09:06:43.127Z,93057.09
2023-01-09T09:09:46.497Z,93061.72
2023-01-09T09:12:51.109Z,93050.00
2023-01-09T09:15:54.093Z,93044.81
2023-01-09T09:18:57.089Z,93040.13
2023-01-09T09:21:59.990Z,93036.34
2023-01-09T09:25:21.738Z,93026.72
2023-01-09T09:28:25.517Z,93020.91
2023-01-09T09:31:28.772Z,93028.31
2023-01-09T09:34:32.582Z,93015.41
2023-01-09T09:37:37.060Z,93013.56
2023-01-09T09:41:04.853Z,93011.03
2023-01-09T09:44:53.401Z,93012.91
2023-01-09T09:48:18.949Z,93011.25
2023-01-09T09:51:27.986Z,93007.06
2023-01-09T09:54:59.133Z,92998.31
2023-01-09T09:58:08.541Z,92977.09
2023-01-09T10:01:17.549Z,92982.19
2023-01-09T10:04:24.021Z,92978.78
2023-01-09T10:07:37.654Z,92979.69
2023-01-09T10:10:50.303Z,92970.91
2023-01-09T10:14:06.306Z,92976.63
2023-01-09T10:17:31.533Z,92971.09
2023-01-09T10:21:06.373Z,92961.44
2023-01-09T10:24:22.793Z,92956.59
2023-01-09T10:27:59.771Z,92952.03
2023-01-09T10:31:16.668Z,92943.44
2023-01-09T10:34:39.474Z,92943.16
2023-01-09T10:37:48.276Z,92946.69
2023-01-09T10:41:07.930Z,92944.28
2023-01-09T10:44:26.167Z,92937.16
2023-01-09T10:47:34.770Z,92933.22
2023-01-09T10:50:42.379Z,92936.94
2023-01-09T10:54:16.575Z,92939.31
2023-01-09T10:57:40.953Z,92941.00
2023-01-09T11:00:44.658Z,92929.75
2023-01-09T11:03:47.794Z,92926.84
2023-01-09T11:07:00.921Z,92914.94
2023-01-09T11:10:29.126Z,92906.22
2023-01-09T11:13:35.723Z,92907.94
2023-01-09T11:16:39.483Z,92918.25
2023-01-09T11:20:03.019Z,92911.69
2023-01-09T11:23:27.725Z,92904.31
2023-01-09T11:26:31.363Z,92908.47
2023-01-09T11:29:35.454Z,92900.03
2023-01-09T11:32:39.441Z,92892.81
2023-01-09T11:35:52.924Z,92894.44
2023-01-09T11:38:59.376Z,92898.75
2023-01-09T11:42:06.297Z,92901.50
2023-01-09T11:46:00.189Z,92900.31
2023-01-09T11:49:23.515Z,92900.72
2023-01-09T11:52:27.582Z,92902.06
2023-01-09T11:55:41.923Z,92902.94
2023-01-09T11:58:46.477Z,92886.00
2023-01-09T12:02:10.863Z,92874.16
2023-01-09T12:05:25.892Z,92878.16
2023-01-09T12:08:41.611Z,92874.59
2023-01-09T12:11:54.000Z,92882.75
2023-01-09T12:15:08.654Z,92898.22
2023-01-09T12:18:24.219Z,92892.59
2023-01-09T12:21:42.928Z,92901.41
2023-01-09T12:25:12.541Z,92902.59
2023-01-09T12:28:39.843Z,92914.47
2023-01-09T12:32:09.618Z,92904.38
2023-01-09T12:35:51.278Z,92889.09
2023-01-09T12:39:33.493Z,92908.06
2023-01-09T12:43:07.761Z,92921.19
2023-01-09T12:46:25.004Z,92888.16
2023-01-09T12:49:55.164Z,92870.66
2023-01-09T12:53:07.794Z,92870.97
2023-01-09T12:56:17.184Z,92878.31
2023-01-09T12:59:32.743Z,92865.34
2023-01-09T13:02:46.305Z,92890.50
2023-01-09T13:05:55.146Z,92876.34
2023-01-09T13:09:08.517Z,92866.03
2023-01-09T13:12:36.352Z,92865.16
2023-01-09T13:16:01.631Z,92871.63
2023-01-09T13:19:31.765Z,92883.66
2023-01-09T13:22:36.010Z,92871.34
2023-01-09T13:25:49.740Z,92874.94
2023-01-09T13:29:00.707Z,92878.38
2023-01-09T13:32:38.227Z,92874.34
2023-01-09T13:35:56.735Z,92872.19
2023-01-09T13:39:02.132Z,92875.53
2023-01-09T13:42:26.164Z,92878.50
2023-01-09T13:45:33.875Z,92877.72
2023-01-09T13:48:43.273Z,92873.34
2023-01-09T13:51:49.989Z,92863.03
2023-01-09T13:54:56.684Z,92855.25
2023-01-09T13:58:06.478Z,92864.22
2023-01-09T14:01:28.576Z,92872.34
2023-01-09T14:04:43.328Z,92863.22
2023-01-09T14:07:50.034Z,92865.81
2023-01-09T14:11:05.635Z,92869.38
2023-01-09T14:14:24.152Z,92867.81
2023-01-09T14:17:38.654Z,92865.31
2023-01-09T14:20:49.039Z,92843.22
2023-01-09T14:24:06.480Z,92821.34
2023-01-09T14:27:48.714Z,92788.84
2023-01-09T14:30:55.389Z,92816.47
2023-01-09T14:34:36.548Z,92832.09
2023-01-09T14:37:41.210Z,92829.16
2023-01-09T14:41:09.276Z,92830.81
2023-01-09T14:45:07.423Z,92822.81
2023-01-09T14:48:13.537Z,92804.97
2023-01-09T14:51:19.090Z,92822.69
2023-01-09T14:54:22.166Z,92836.53
2023-01-09T14:57:34.576Z,92827.94
2023-01-09T15:00:46.833Z,92817.63
2023-01-09T15:04:14.156Z,92815.66
2023-01-09T15:07:31.445Z,92817.63
2023-01-09T15:10:39.371Z,92808.72
2023-01-09T15:13:46.473Z,92813.00
2023-01-09T15:16:50.965Z,92837.22
2023-01-09T15:19:57.133Z,92837.00
2023-01-09T15:23:05.033Z,92835.19
2023-01-09T15:26:29.082Z,92842.03
2023-01-09T15:29:32.776Z,92829.97
2023-01-09T15:32:37.764Z,92825.31
2023-01-09T15:35:49.104Z,92807.59
2023-01-09T15:38:54.277Z,92811.47
2023-01-09T15:42:18.311Z,92819.63
2023-01-09T15:45:40.686Z,92827.09
2023-01-09T15:48:44.019Z,92828.75
2023-01-09T15:51:49.908Z,92820.22
2023-01-09T15:54:52.779Z,92817.63
2023-01-09T15:57:58.030Z,92813.88
2023-01-09T16:01:08.936Z,92823.81
2023-01-09T16:04:16.780Z,92813.09
2023-01-09T16:07:21.717Z,92810.03
2023-01-09T16:10:30.692Z,92812.09
2023-01-09T16:13:40.766Z,92813.16
2023-01-09T16:16:45.778Z,92797.50
2023-01-09T16:19:53.076Z,92819.69
2023-01-09T16:22:58.109Z,92821.28
2023-01-09T16:26:20.523Z,92820.63
2023-01-09T16:29:37.616Z,92825.09
2023-01-09T16:32:52.185Z,92839.41
2023-01-09T16:35:56.093Z,92845.19
2023-01-09T16:39:01.820Z,92855.72
2023-01-09T16:42:28.622Z,92856.16
2023-01-09T16:45:35.606Z,92846.16
2023-01-09T16:48:41.486Z,92838.66
2023-01-09T16:51:45.175Z,92845.59
2023-01-09T16:54:49.248Z,92840.88
2023-01-09T16:57:53.059Z,92823.28
2023-01-09T17:00:58.179Z,92834.50
2023-01-09T17:04:02.050Z,92837.34
2023-01-09T17:07:06.062Z,92841.78
2023-01-09T17:10:19.646Z,92845.47
2023-01-09T17:13:23.794Z,92849.00
2023-01-09T17:16:27.098Z,92852.75
2023-01-09T17:19:31.099Z,92819.91
2023-01-09T17:22:34.024Z,92828.31
2023-01-09T17:25:56.191Z,92831.56
2023-01-09T17:28:59.193Z,92823.03
2023-01-09T17:32:02.459Z,92827.19
2023-01-09T17:35:05.912Z,92817.88
2023-01-09T17:38:16.735Z,92818.66
2023-01-09T17:41:19.762Z,92810.91
2023-01-09T17:44:23.476Z,92812.63
2023-01-09T17:47:27.155Z,92818.13
2023-01-09T17:50:34.079Z,92828.19
2023-01-09T17:53:37.865Z,92833.63
2023-01-09T17:56:45.718Z,92831.13
2023-01-09T17:59:49.685Z,92831.25
2023-01-09T18:02:54.490Z,92830.16
2023-01-09T18:05:59.995Z,92834.63
2023-01-09T18:09:04.192Z,92841.66
2023-01-09T18:12:07.336Z,92839.00
2023-01-09T18:15:11.173Z,92856.47
2023-01-09T18:18:16.591Z,92852.31
2023-01-09T18:21:23.925Z,92855.19
2023-01-09T18:24:27.364Z,92845.25
2023-01-09T18:27:31.107Z,92843.47
2023-01-09T18:30:34.514Z,92847.91
2023-01-09T18:33:37.484Z,92863.50
2023-01-09T18:36:41.358Z,92875.38
2023-01-09T18:39:45.219Z,92867.47
2023-01-09T18:42:49.138Z,92854.25
2023-01-09T18:45:52.245Z,92857.47
2023-01-09T18:49:01.057Z,92866.75
2023-01-09T18:52:05.267Z,92876.75
2023-01-09T18:55:10.563Z,92861.66
2023-01-09T18:58:13.982Z,92853.53
2023-01-09T19:01:18.179Z,92860.06
2023-01-09T19:04:21.399Z,92868.66
2023-01-09T19:07:24.799Z,92869.03
2023-01-09T19:10:27.847Z,92862.47
2023-01-09T19:13:36.814Z,92852.66
2023-01-09T19:16:40.208Z,92847.06
2023-01-09T19:19:43.643Z,92863.22
2023-01-09T19:22:47.410Z,92851.34
2023-01-09T19:25:52.778Z,92850.38
2023-01-09T19:28:58.123Z,92859.06
2023-01-09T19:32:01.378Z,92843.72
2023-01-09T19:35:04.638Z,92836.94
2023-01-09T19:38:08.182Z,92831.59
2023-01-09T19:41:14.949Z,92833.94
2023-01-09T19:44:19.459Z,92835.28
2023-01-09T19:47:22.423Z,92828.16
2023-01-09T19:50:25.481Z,92810.31
2023-01-09T19:53:30.780Z,92803.31
2023-01-09T19:56:44.444Z,92805.91
2023-01-09T19:59:47.516Z,92809.38
2023-01-09T20:02:50.893Z,92800.69
2023-01-09T20:05:53.956Z,92802.56
2023-01-09T20:08:59.204Z,92813.00
2023-01-09T20:12:04.357Z,92817.22
2023-01-09T20:15:13.204Z,92807.75
2023-01-09T20:18:16.777Z,92788.69
2023-01-09T20:24:25.963Z,92765.25
2023-01-09T20:27:29.672Z,92773.06
2023-01-09T20:30:34.888Z,92772.81
2023-01-09T20:33:38.971Z,92764.19
2023-01-09T20:36:43.017Z,92768.59
2023-01-09T20:39:46.417Z,92772.88
2023-01-09T20:42:49.435Z,92785.88
2023-01-09T20:45:52.342Z,92793.66
2023-01-09T20:49:00.357Z,92779.25
2023-01-09T20:52:04.799Z,92779.50
2023-01-09T20:55:09.441Z,92799.09
2023-01-09T20:58:13.422Z,92803.31
2023-01-09T21:01:16.823Z,92803.13
2023-01-09T21:04:20.407Z,92796.66
2023-01-09T21:07:25.634Z,92781.53
2023-01-09T21:10:28.721Z,92774.03
2023-01-09T21:13:32.539Z,92762.19
2023-01-09T21:16:36.198Z,92763.56
2023-01-09T21:19:39.176Z,92752.38
2023-01-09T21:22:42.271Z,92758.13
2023-01-09T21:25:45.792Z,92760.09
2023-01-09T21:28:50.514Z,92756.56
2023-01-09T21:31:55.529Z,92753.44
2023-01-09T21:35:04.713Z,92742.28
2023-01-09T21:38:08.095Z,92742.91
2023-01-09T21:41:29.899Z,92737.78
2023-01-09T21:44:51.607Z,92733.13
2023-01-09T21:47:54.599Z,92730.22
2023-01-09T21:51:03.212Z,92709.66
2023-01-09T21:54:06.840Z,92706.59
2023-01-09T21:57:10.211Z,92729.03
2023-01-09T22:00:13.927Z,92724.66
2023-01-09T22:03:19.503Z,92733.28
2023-01-09T22:06:23.587Z,92738.16
2023-01-09T22:09:26.994Z,92730.78
2023-01-09T22:12:30.653Z,92723.78
2023-01-09T22:15:34.728Z,92717.47
2023-01-09T22:18:38.338Z,92723.56
2023-01-09T22:21:42.392Z,92726.50
2023-01-09T22:24:45.777Z,92722.69
2023-01-09T22:27:49.686Z,92721.50
2023-01-09T22:30:52.650Z,92720.88
2023-01-09T22:33:59.071Z,92725.81
2023-01-09T22:37:02.280Z,92737.03
2023-01-09T22:40:06.445Z,92744.34
2023-01-09T22:43:15.078Z,92742.78
2023-01-09T22:46:18.238Z,92737.38
2023-01-09T22:49:22.011Z,92736.97
2023-01-09T22:52:25.708Z,92738.41
2023-01-09T22:55:29.435Z,92750.44
2023-01-09T22:58:33.339Z,92757.41
2023-01-09T23:01:37.126Z,92752.75
2023-01-09T23:04:40.769Z,92764.34
2023-01-09T23:07:44.769Z,92768.50
2023-01-09T23:10:48.227Z,92753.13
2023-01-09T23:13:52.365Z,92763.16
2023-01-09T23:16:58.441Z,92770.72
2023-01-09T23:20:01.894Z,92770.38
2023-01-09T23:23:05.030Z,92763.34
2023-01-09T23:26:08.622Z,92755.69
2023-01-09T23:29:13.565Z,92754.47
2023-01-09T23:32:17.266Z,92751.06
2023-01-09T23:35:20.239Z,92766.06
2023-01-09T23:38:23.950Z,92753.41
2023-01-09T23:41:45.927Z,92755.53
2023-01-09T23:44:49.487Z,92749.69
2023-01-09T23:47:52.622Z,92743.16
2023-01-09T23:50:55.784Z,92731.19
2023-01-09T23:53:58.687Z,92708.19
2023-01-09T23:57:02.358Z,92717.13
